Runaway Bay, Texas
Current Conditions -  °F | °C
As of 5:55 AM on Wednesday 28 Jan 2015 (Local Time) from KXBP Reporting Station
Clear Clear  
Wind Chill: 41°   Ceiling: Unl
Heat Index: 41°   Visibility: 10mi
Dew Point: 36°   Wind: 0mph
Humidity: 82%   Direction: NA
Pressure: 30.08"   Gusts: NA
Location:  33.1691°N, 97.8246°W
Report Text: KXBP 281155Z AUTO 00000KT 10SM CLR 05/02 A3008 RMK AO2 T00480020 10142 20047
Loading
Personal Weather Stations






























Interactive Weather Map New forecast layout! Learn more

10-Day Weather Forecast

Advertisements
Track Severe Weather on mobile